Time;durP1;ratioP1;P1;durP2;ratioP2;P2;SDS_P1;SDS_P2;PMS_P1;PMS_P2;Temp;Humidity;BMP_temperature;BMP_pressure;BME280_temperature;BME280_humidity;BME280_pressure;Samples;Min_cycle;Max_cycle;Signal;HPM_P1;HPM_P2
2022/11/14 00:01:42;;;;;;;6.00;3.60;;;;;;;10.41;58.16;102021.91;5035274;28;20084;-74
2022/11/14 00:04:10;;;;;;;8.23;3.40;;;;;;;10.33;61.01;102020.63;5032970;28;20057;-74
2022/11/14 00:06:47;;;;;;;6.50;3.13;;;;;;;10.23;59.26;102017.53;5032446;28;20144;-74
2022/11/14 00:09:16;;;;;;;5.93;2.75;;;;;;;10.15;61.94;102026.63;5031167;28;20608;-74
2022/11/14 00:11:45;;;;;;;5.57;3.33;;;;;;;10.05;61.82;102021.78;5031724;28;20059;-75
2022/11/14 00:14:14;;;;;;;5.63;3.10;;;;;;;9.97;62.73;102016.22;5045159;28;20072;-73
2022/11/14 00:16:42;;;;;;;4.78;3.05;;;;;;;9.95;59.61;102017.81;5047155;28;20041;-73
2022/11/14 00:19:17;;;;;;;6.55;3.05;;;;;;;9.84;59.68;102018.97;5049662;28;20041;-75
2022/11/14 00:21:47;;;;;;;3.95;2.67;;;;;;;9.76;61.93;102017.69;5050304;28;20422;-76
2022/11/14 00:24:16;;;;;;;7.50;3.40;;;;;;;9.71;64.32;102025.19;5059460;28;20044;-76
2022/11/14 00:26:45;;;;;;;5.43;3.05;;;;;;;9.68;67.04;102018.97;5045343;28;20055;-74
2022/11/14 00:29:16;;;;;;;5.90;3.15;;;;;;;9.53;68.26;102006.09;5045491;28;20052;-75
2022/11/14 00:31:45;;;;;;;5.10;2.58;;;;;;;9.57;65.62;102019.25;5050397;28;20380;-74
2022/11/14 00:34:14;;;;;;;4.47;3.13;;;;;;;9.53;64.85;102011.25;5056033;28;20066;-73
2022/11/14 00:36:44;;;;;;;3.83;2.70;;;;;;;9.49;63.49;102009.34;5048678;28;20051;-76
2022/11/14 00:39:18;;;;;;;5.03;2.55;;;;;;;9.40;62.25;102013.19;5049042;28;20057;-74
2022/11/14 00:41:47;;;;;;;3.88;2.25;;;;;;;9.35;62.77;102012.06;5049335;28;20041;-75
2022/11/14 00:44:16;;;;;;;6.55;2.75;;;;;;;9.30;65.30;102010.94;5053697;28;20060;-77
2022/11/14 00:46:47;;;;;;;4.53;2.58;;;;;;;9.20;63.42;102006.94;5048401;28;20053;-75
2022/11/14 00:49:23;;;;;;;4.50;2.85;;;;;;;9.09;64.16;102008.03;5047551;28;20041;-75
2022/11/14 00:51:51;;;;;;;5.22;2.97;;;;;;;8.98;62.07;102009.16;5046412;28;20048;-75
2022/11/14 00:54:22;;;;;;;7.03;3.15;;;;;;;8.85;62.43;102017.88;5047225;28;20517;-75
2022/11/14 00:56:51;;;;;;;4.40;2.53;;;;;;;8.74;62.44;102016.38;5046859;28;20049;-74
2022/11/14 00:59:19;;;;;;;6.00;2.90;;;;;;;8.68;66.13;102018.59;5050795;28;20546;-75
2022/11/14 01:01:48;;;;;;;5.38;2.92;;;;;;;8.63;67.65;102009.72;5053609;28;20132;-76
2022/11/14 01:04:17;;;;;;;6.13;3.47;;;;;;;8.49;66.65;102007.22;5052303;28;20049;-76
2022/11/14 01:06:46;;;;;;;6.43;3.15;;;;;;;8.51;66.87;102008.19;5049496;28;20045;-73
2022/11/14 01:09:14;;;;;;;6.28;3.40;;;;;;;8.46;67.97;102013.91;5048571;28;20064;-76
2022/11/14 01:11:54;;;;;;;4.63;2.70;;;;;;;8.34;69.97;102014.06;5045045;28;20055;-74
2022/11/14 01:14:22;;;;;;;9.07;3.22;;;;;;;8.26;69.27;102008.44;5021447;28;20049;-73
2022/11/14 01:16:51;;;;;;;6.80;3.15;;;;;;;8.20;68.29;101997.78;5024714;28;20072;-72
2022/11/14 01:19:20;;;;;;;6.93;3.53;;;;;;;8.10;67.60;101993.75;5022978;28;20072;-76
2022/11/14 01:21:49;;;;;;;6.00;3.70;;;;;;;8.07;68.27;101996.16;5025326;28;20049;-76
2022/11/14 01:24:17;;;;;;;9.23;3.45;;;;;;;8.00;69.99;101993.13;5026988;28;20563;-77
2022/11/14 01:26:48;;;;;;;5.57;3.25;;;;;;;7.95;72.19;102003.16;5023595;28;20111;-74
2022/11/14 01:29:16;;;;;;;7.03;3.83;;;;;;;7.92;71.14;101997.78;5025582;28;20049;-77
2022/11/14 01:31:47;;;;;;;5.40;2.60;;;;;;;7.86;71.31;101995.75;5026274;28;20045;-77
2022/11/14 01:34:16;;;;;;;6.20;3.30;;;;;;;7.80;70.52;101990.22;5020450;28;20074;-75
2022/11/14 01:36:45;;;;;;;6.72;3.55;;;;;;;7.72;69.54;101997.50;5024484;28;20076;-76
2022/11/14 01:39:13;;;;;;;5.40;3.17;;;;;;;7.65;72.14;101994.44;5026636;28;20049;-74
2022/11/14 01:41:42;;;;;;;6.43;3.33;;;;;;;7.61;72.66;102003.69;5026253;28;20099;-77
2022/11/14 01:44:17;;;;;;;10.25;3.67;;;;;;;7.56;70.29;102002.50;5026906;28;20052;-74
2022/11/14 01:46:52;;;;;;;8.02;3.80;;;;;;;7.54;70.00;101996.38;5024998;28;20037;-76
2022/11/14 01:49:26;;;;;;;6.82;3.88;;;;;;;7.50;69.89;101990.13;5024092;28;20046;-75
2022/11/14 01:52:01;;;;;;;7.30;3.78;;;;;;;7.45;69.80;101990.66;5024856;28;20045;-72
2022/11/14 01:54:32;;;;;;;7.03;4.00;;;;;;;7.40;70.29;101992.03;5025979;28;20142;-75
2022/11/14 01:57:03;;;;;;;5.88;3.85;;;;;;;7.32;70.73;101984.72;5024446;28;20056;-71
2022/11/14 01:59:39;;;;;;;6.30;3.80;;;;;;;7.28;71.26;101987.94;5024457;28;20057;-75
2022/11/14 02:02:15;;;;;;;6.15;3.60;;;;;;;7.25;70.80;102000.59;5024719;28;20047;-76
2022/11/14 02:04:48;;;;;;;5.15;3.63;;;;;;;7.15;71.43;101985.38;5023045;28;20651;-71
2022/11/14 02:07:18;;;;;;;6.45;3.65;;;;;;;7.12;71.18;102000.59;5023439;28;20064;-73
2022/11/14 02:09:49;;;;;;;6.43;3.30;;;;;;;7.06;72.31;102000.22;5021014;28;20430;-73
2022/11/14 02:12:20;;;;;;;6.07;3.15;;;;;;;6.92;73.34;101989.94;5031416;28;20057;-72
2022/11/14 02:14:53;;;;;;;4.55;2.92;;;;;;;6.96;75.76;102003.88;5042761;28;20044;-74
2022/11/14 02:17:22;;;;;;;8.25;3.35;;;;;;;6.91;76.39;102010.41;5052130;28;20037;-72
2022/11/14 02:19:53;;;;;;;7.93;2.78;;;;;;;6.85;76.64;102010.94;5050978;28;20500;-72
2022/11/14 02:22:23;;;;;;;6.90;4.00;;;;;;;6.72;78.36;102008.34;5051414;28;20079;-72
2022/11/14 02:24:52;;;;;;;5.57;3.95;;;;;;;6.55;75.74;102003.78;5048397;28;20091;-73
2022/11/14 02:27:24;;;;;;;7.22;3.83;;;;;;;6.44;76.16;102006.53;5049210;28;20099;-75
2022/11/14 02:29:53;;;;;;;9.77;4.63;;;;;;;6.44;76.85;102006.53;5051718;28;20040;-75
2022/11/14 02:32:21;;;;;;;11.15;6.60;;;;;;;6.43;77.79;102012.44;5052566;28;20048;-74
2022/11/14 02:34:50;;;;;;;10.52;4.80;;;;;;;6.43;78.41;102004.75;5055177;28;20044;-74
2022/11/14 02:37:19;;;;;;;11.13;6.53;;;;;;;6.44;78.01;102010.81;5048144;28;20049;-73
2022/11/14 02:39:49;;;;;;;9.48;3.85;;;;;;;6.37;77.86;102004.34;5046949;28;20049;-73
2022/11/14 02:42:17;;;;;;;10.05;5.55;;;;;;;6.28;79.83;102008.88;5047350;28;20585;-73
2022/11/14 02:44:46;;;;;;;10.98;4.25;;;;;;;6.21;83.23;102004.13;5052933;28;20044;-73
2022/11/14 02:47:15;;;;;;;9.05;4.07;;;;;;;6.19;84.44;102003.13;5048476;28;20041;-73
2022/11/14 02:49:48;;;;;;;7.03;4.15;;;;;;;6.12;83.88;101985.53;5046795;28;20048;-72
2022/11/14 02:52:17;;;;;;;7.75;4.38;;;;;;;6.15;83.54;101985.72;5047382;28;20052;-73
2022/11/14 02:54:46;;;;;;;8.52;4.57;;;;;;;6.12;84.75;101985.53;5049740;28;20052;-75
2022/11/14 02:57:16;;;;;;;8.88;5.03;;;;;;;6.06;86.18;101974.03;5055558;28;20426;-73
2022/11/14 02:59:48;;;;;;;7.22;4.03;;;;;;;6.11;88.46;101983.72;5052655;28;20482;-75
2022/11/14 03:02:17;;;;;;;8.40;4.28;;;;;;;6.07;90.37;101983.53;5056147;28;20951;-73
2022/11/14 03:04:45;;;;;;;7.35;4.85;;;;;;;6.09;90.95;101983.59;5057224;28;20044;-74
2022/11/14 03:07:14;;;;;;;11.80;5.45;;;;;;;6.05;90.94;101972.25;5054204;28;20057;-73
2022/11/14 03:09:43;;;;;;;9.30;4.72;;;;;;;6.21;90.50;101981.00;5053083;28;20041;-73
2022/11/14 03:12:13;;;;;;;9.80;4.85;;;;;;;6.29;89.42;101977.25;5051399;28;20049;-75
2022/11/14 03:14:43;;;;;;;7.03;4.47;;;;;;;6.38;88.70;101980.41;5053444;28;20041;-74
2022/11/14 03:17:12;;;;;;;12.63;5.90;;;;;;;6.44;87.50;101975.69;5050975;28;20088;-72
2022/11/14 03:19:41;;;;;;;13.85;5.88;;;;;;;6.49;86.70;101982.00;5049168;28;20690;-72
2022/11/14 03:22:14;;;;;;;10.02;4.68;;;;;;;6.56;87.10;101975.59;5052338;28;20435;-74
2022/11/14 03:24:43;;;;;;;7.13;4.30;;;;;;;6.60;86.68;101981.84;5049996;28;21447;-75
2022/11/14 03:27:11;;;;;;;6.35;4.30;;;;;;;6.63;85.70;101985.50;5045314;28;20049;-76
2022/11/14 03:29:42;;;;;;;7.03;4.28;;;;;;;6.66;84.85;101977.97;5044358;28;20425;-74
2022/11/14 03:32:11;;;;;;;5.00;3.22;;;;;;;6.72;84.48;101982.63;5046221;28;20055;-73
2022/11/14 03:34:40;;;;;;;9.85;4.45;;;;;;;6.78;83.43;101974.41;5045370;28;20132;-76
2022/11/14 03:37:09;;;;;;;7.40;3.63;;;;;;;6.83;83.48;101981.63;5046388;28;20445;-75
2022/11/14 03:39:37;;;;;;;7.80;3.92;;;;;;;6.86;82.34;101974.09;5047137;28;20037;-75
2022/11/14 03:42:07;;;;;;;6.50;3.97;;;;;;;6.92;82.48;101976.19;5050325;28;20520;-75
2022/11/14 03:44:40;;;;;;;12.77;4.32;;;;;;;6.96;81.61;101978.16;5051603;28;20053;-75
2022/11/14 03:47:10;;;;;;;6.80;4.20;;;;;;;7.00;82.19;101990.41;5051314;28;20053;-77
2022/11/14 03:49:39;;;;;;;8.73;4.30;;;;;;;7.02;82.05;101983.69;5048275;28;20514;-76
2022/11/14 03:52:08;;;;;;;8.60;4.28;;;;;;;7.05;81.10;101981.31;5049431;28;20547;-75
2022/11/14 03:54:39;;;;;;;7.03;3.90;;;;;;;7.07;81.00;101984.88;5052315;28;20053;-75
2022/11/14 03:57:08;;;;;;;7.18;4.00;;;;;;;7.07;81.14;101987.44;5052982;28;20045;-74
2022/11/14 03:59:36;;;;;;;5.93;3.80;;;;;;;7.10;81.15;101987.66;5056533;28;20124;-74
2022/11/14 04:02:05;;;;;;;8.18;3.65;;;;;;;7.10;81.05;101989.31;5055087;28;20049;-78
2022/11/14 04:04:35;;;;;;;6.60;3.28;;;;;;;7.10;81.46;101984.16;5056363;28;20049;-76
2022/11/14 04:07:05;;;;;;;8.07;4.25;;;;;;;7.10;79.99;101989.31;5047361;28;20053;-76
2022/11/14 04:09:33;;;;;;;6.95;4.43;;;;;;;7.10;80.27;101981.59;5044063;28;20643;-75
2022/11/14 04:12:02;;;;;;;7.90;4.15;;;;;;;7.07;80.42;101977.16;5050144;28;20087;-76
2022/11/14 04:14:31;;;;;;;9.82;4.70;;;;;;;7.09;79.58;101988.44;5040073;28;20045;-72
2022/11/14 04:16:59;;;;;;;8.75;3.85;;;;;;;7.10;80.20;101991.88;5045549;28;20049;-78
2022/11/14 04:19:32;;;;;;;10.57;4.40;;;;;;;7.09;80.45;101996.16;5043954;28;20489;-76
2022/11/14 04:22:02;;;;;;;11.73;4.70;;;;;;;7.05;79.82;101983.00;5047179;28;20116;-76
2022/11/14 04:24:31;;;;;;;7.20;3.95;;;;;;;7.05;80.23;101989.03;5046189;28;20493;-73
2022/11/14 04:27:00;;;;;;;9.10;4.10;;;;;;;7.04;80.46;101987.25;5045978;28;20059;-81
2022/11/14 04:29:31;;;;;;;13.65;5.38;;;;;;;7.03;80.17;101992.28;5048651;28;20056;-76
2022/11/14 04:31:59;;;;;;;10.48;4.25;;;;;;;7.02;79.39;101993.09;5045563;28;20053;-82
2022/11/14 04:34:28;;;;;;;8.75;4.15;;;;;;;7.01;79.47;102001.59;5046273;28;20052;-78
2022/11/14 04:36:56;;;;;;;6.82;3.25;;;;;;;6.99;80.15;102005.78;5049203;28;20045;-77
2022/11/14 04:39:27;;;;;;;8.32;4.00;;;;;;;6.98;80.25;102006.56;5051135;28;20053;-77
2022/11/14 04:41:55;;;;;;;8.63;4.18;;;;;;;6.97;78.96;102009.94;5052686;28;20060;-78
2022/11/14 04:44:24;;;;;;;6.45;4.03;;;;;;;6.96;79.67;102008.16;5052335;28;20045;-77
2022/11/14 04:46:52;;;;;;;7.32;3.83;;;;;;;6.94;79.03;102018.34;5049196;28;20051;-77
2022/11/14 04:49:21;;;;;;;6.65;4.03;;;;;;;6.96;78.60;102023.59;5043431;28;20084;-77
2022/11/14 04:51:50;;;;;;;6.20;3.80;;;;;;;6.96;78.35;102024.47;5048835;28;20048;-75
2022/11/14 04:54:19;;;;;;;8.07;4.28;;;;;;;6.95;78.07;102022.69;5047878;28;20045;-77
2022/11/14 04:56:49;;;;;;;8.93;4.22;;;;;;;6.97;78.13;102020.22;5047249;28;20056;-77
2022/11/14 04:59:18;;;;;;;11.15;4.22;;;;;;;6.97;77.73;102022.81;5043910;28;20107;-79
2022/11/14 05:01:47;;;;;;;6.72;3.78;;;;;;;6.98;77.42;102029.72;5043709;28;20084;-76
2022/11/14 05:04:16;;;;;;;8.27;3.95;;;;;;;6.97;76.67;102026.25;5047670;28;20052;-81
2022/11/14 05:06:44;;;;;;;8.15;4.30;;;;;;;6.96;77.31;102031.31;5052137;28;20056;-76
2022/11/14 05:09:14;;;;;;;6.80;4.28;;;;;;;6.90;77.13;102019.84;5047479;28;20049;-77
2022/11/14 05:11:42;;;;;;;6.82;4.43;;;;;;;6.95;76.76;102033.00;5051718;28;20095;-77
2022/11/14 05:14:13;;;;;;;6.00;4.07;;;;;;;6.93;75.74;102038.03;5029901;28;20061;-74
2022/11/14 05:16:43;;;;;;;8.73;3.78;;;;;;;6.92;75.21;102038.84;5026287;28;20099;-80
2022/11/14 05:19:15;;;;;;;6.70;3.72;;;;;;;6.93;75.84;102039.72;5030436;28;20054;-77
2022/11/14 05:21:43;;;;;;;6.95;3.60;;;;;;;6.91;76.07;102020.72;5029699;28;20045;-77
2022/11/14 05:24:12;;;;;;;8.13;3.90;;;;;;;6.88;74.62;102011.13;5026740;28;20084;-75
2022/11/14 05:26:41;;;;;;;6.32;3.75;;;;;;;6.89;74.70;102020.63;5025186;28;20140;-76
2022/11/14 05:29:09;;;;;;;7.45;3.78;;;;;;;6.87;74.95;102022.22;5024604;28;20053;-79
2022/11/14 05:31:40;;;;;;;8.02;3.85;;;;;;;6.83;73.88;102022.81;5021118;28;20042;-79
2022/11/14 05:34:08;;;;;;;7.47;4.13;;;;;;;6.78;74.12;102019.06;5030802;28;20052;-79
2022/11/14 05:36:37;;;;;;;7.75;3.70;;;;;;;6.77;74.44;102022.41;5029430;28;20055;-79
2022/11/14 05:39:06;;;;;;;7.70;4.07;;;;;;;6.73;74.94;102025.53;5027662;28;20418;-75
2022/11/14 05:41:34;;;;;;;6.00;3.72;;;;;;;6.68;74.37;102032.09;5027894;28;20052;-76
2022/11/14 05:44:05;;;;;;;8.02;3.80;;;;;;;6.63;73.99;102024.06;5024963;28;20045;-75
2022/11/14 05:46:34;;;;;;;12.88;4.38;;;;;;;6.61;74.23;102030.78;5025224;28;20041;-75
2022/11/14 05:49:04;;;;;;;6.57;3.25;;;;;;;6.57;74.52;102038.19;5029275;28;20045;-72
2022/11/14 05:51:35;;;;;;;9.18;3.88;;;;;;;6.55;74.58;102032.97;5025329;28;20057;-72
2022/11/14 05:54:04;;;;;;;6.70;4.05;;;;;;;6.55;74.96;102032.06;5022758;28;20044;-72
2022/11/14 05:56:33;;;;;;;8.45;4.28;;;;;;;6.52;75.04;102025.03;5027005;28;20126;-71
2022/11/14 05:59:01;;;;;;;8.20;3.78;;;;;;;6.50;74.77;102027.53;5032582;28;20072;-71
2022/11/14 06:01:30;;;;;;;5.60;3.72;;;;;;;6.47;75.80;102036.69;5030290;28;20480;-71
2022/11/14 06:03:59;;;;;;;8.40;4.30;;;;;;;6.46;74.81;102032.38;5027696;28;20053;-70
2022/11/14 06:06:29;;;;;;;10.15;3.90;;;;;;;6.45;74.88;102036.59;5025212;28;20081;-72
2022/11/14 06:08:58;;;;;;;7.18;3.83;;;;;;;6.45;74.46;102034.03;5027004;28;20057;-70
2022/11/14 06:11:26;;;;;;;8.63;3.90;;;;;;;6.43;75.05;102019.28;5029304;28;20045;-72
2022/11/14 06:14:02;;;;;;;9.88;3.97;;;;;;;6.42;74.37;102022.66;5031914;28;20053;-72
2022/11/14 06:16:30;;;;;;;9.50;4.13;;;;;;;6.40;74.39;102025.13;5030361;28;20049;-73
2022/11/14 06:18:59;;;;;;;9.98;3.83;;;;;;;6.40;74.94;102013.94;5028046;28;20057;-70
2022/11/14 06:21:29;;;;;;;6.15;3.50;;;;;;;6.38;75.06;102021.56;5036515;28;20529;-71
2022/11/14 06:23:58;;;;;;;6.78;3.80;;;;;;;6.37;74.60;102019.78;5027561;28;20057;-74
2022/11/14 06:26:29;;;;;;;7.85;4.25;;;;;;;6.33;75.92;102017.78;5035883;28;20731;-72
2022/11/14 06:28:59;;;;;;;5.78;4.10;;;;;;;6.30;75.51;102020.16;5024526;28;20482;-72
2022/11/14 06:31:28;;;;;;;7.25;3.30;;;;;;;6.27;76.19;102013.09;5024884;28;20054;-72
2022/11/14 06:33:57;;;;;;;6.95;4.07;;;;;;;6.24;76.03;102019.75;5030577;28;20103;-72
2022/11/14 06:36:25;;;;;;;5.55;3.60;;;;;;;6.22;75.93;102018.75;5022173;28;20111;-71
2022/11/14 06:38:56;;;;;;;6.95;3.42;;;;;;;6.18;76.44;102021.88;5030129;28;20046;-72
2022/11/14 06:41:24;;;;;;;7.55;3.88;;;;;;;6.15;76.17;102022.59;5027278;28;20049;-71
2022/11/14 06:43:55;;;;;;;7.30;3.97;;;;;;;6.14;76.66;102022.47;5025242;28;20482;-71
2022/11/14 06:46:24;;;;;;;6.15;3.72;;;;;;;6.12;76.61;102018.94;5026534;28;20049;-71
2022/11/14 06:48:55;;;;;;;7.72;4.10;;;;;;;6.12;76.00;102016.34;5029792;28;20066;-70
2022/11/14 06:51:23;;;;;;;11.07;4.45;;;;;;;6.10;76.41;102020.50;5029345;28;20045;-70
2022/11/14 06:53:52;;;;;;;8.02;4.00;;;;;;;6.10;76.66;102028.22;5030815;28;20069;-71
2022/11/14 06:56:22;;;;;;;8.68;5.13;;;;;;;6.08;75.57;102026.41;5031530;28;20505;-72
2022/11/14 06:58:51;;;;;;;10.90;4.28;;;;;;;6.08;75.81;102023.84;5029320;28;20049;-70
2022/11/14 07:01:21;;;;;;;6.53;4.35;;;;;;;6.08;76.32;102022.97;5035148;28;20049;-70
2022/11/14 07:03:50;;;;;;;8.80;4.68;;;;;;;6.08;75.55;102026.41;5034017;28;20055;-70
2022/11/14 07:06:21;;;;;;;8.45;4.63;;;;;;;6.10;74.78;102028.22;5031856;28;20045;-71
2022/11/14 07:08:50;;;;;;;7.03;3.67;;;;;;;6.11;75.14;102027.41;5031340;28;20084;-73
2022/11/14 07:11:23;;;;;;;6.57;3.55;;;;;;;6.11;74.43;102024.84;5039924;28;20045;-71
2022/11/14 07:13:54;;;;;;;6.43;3.50;;;;;;;6.10;73.83;102028.22;5032592;28;20594;-73
2022/11/14 07:16:25;;;;;;;7.65;3.85;;;;;;;6.10;74.20;102030.78;5029303;28;20045;-72
2022/11/14 07:18:56;;;;;;;6.63;3.45;;;;;;;6.10;74.36;102034.22;5028753;28;20486;-71
2022/11/14 07:21:26;;;;;;;7.18;2.75;;;;;;;6.08;73.27;102028.97;5029899;28;20116;-71
2022/11/14 07:23:54;;;;;;;7.78;3.70;;;;;;;6.11;73.37;102029.97;5027843;28;20653;-71
2022/11/14 07:26:23;;;;;;;7.95;3.50;;;;;;;6.11;73.39;102030.88;5030424;28;20048;-71
2022/11/14 07:28:55;;;;;;;7.38;3.53;;;;;;;6.11;72.54;102036.00;5034656;28;20051;-72
2022/11/14 07:31:24;;;;;;;7.85;3.83;;;;;;;6.12;71.79;102044.63;5041220;28;20092;-73
2022/11/14 07:33:52;;;;;;;6.55;3.40;;;;;;;6.12;73.60;102040.38;5027388;28;20475;-71
2022/11/14 07:36:23;;;;;;;6.63;4.25;;;;;;;6.12;71.87;102048.09;5035977;28;20051;-72
2022/11/14 07:38:52;;;;;;;7.22;3.25;;;;;;;6.08;71.67;102039.25;5033481;28;20045;-71
2022/11/14 07:41:31;;;;;;;5.88;3.08;;;;;;;6.12;71.85;102049.78;5035377;28;20060;-70
2022/11/14 07:44:01;;;;;;;6.13;3.03;;;;;;;6.12;71.97;102044.63;5036079;28;20052;-71
2022/11/14 07:46:30;;;;;;;5.65;3.35;;;;;;;6.07;72.12;102044.31;5039225;28;20163;-71
2022/11/14 07:48:58;;;;;;;6.22;3.67;;;;;;;6.05;72.29;102036.50;5030098;28;20068;-71
2022/11/14 07:51:27;;;;;;;5.45;3.42;;;;;;;6.03;72.22;102034.59;5030380;28;20046;-72
2022/11/14 07:53:55;;;;;;;7.30;3.55;;;;;;;6.00;72.74;102037.88;5034457;28;20490;-72
2022/11/14 07:56:25;;;;;;;10.52;3.72;;;;;;;5.95;72.63;102021.22;5032914;28;20061;-71
2022/11/14 07:58:54;;;;;;;16.20;4.10;;;;;;;5.91;72.78;102026.00;5029722;28;20049;-72
2022/11/14 08:01:24;;;;;;;5.78;3.45;;;;;;;5.89;73.20;102023.34;5029036;28;20055;-71
2022/11/14 08:03:55;;;;;;;8.18;3.95;;;;;;;5.86;72.50;102020.56;5031809;28;20045;-72
2022/11/14 08:06:24;;;;;;;9.07;4.07;;;;;;;5.84;72.70;102029.81;5027557;28;20928;-71
2022/11/14 08:08:52;;;;;;;7.30;3.90;;;;;;;5.81;73.10;102029.63;5031414;28;20045;-71
2022/11/14 08:11:46;;;;;;;13.25;4.07;;;;;;;5.78;73.72;102014.03;5030505;28;20080;-70
2022/11/14 08:14:10;;;;;;;6.38;3.75;;;;;;;5.75;73.88;102018.91;5032856;28;20045;-70
2022/11/14 08:16:41;;;;;;;5.93;2.67;;;;;;;5.70;74.49;102015.16;5031512;28;20140;-71
2022/11/14 08:19:09;;;;;;;6.15;3.55;;;;;;;5.67;74.49;102021.84;5037987;28;20049;-72
2022/11/14 08:21:38;;;;;;;5.80;3.30;;;;;;;5.61;75.33;102013.75;5028515;28;20052;-71
2022/11/14 08:24:08;;;;;;;7.70;4.38;;;;;;;5.57;75.15;102023.69;5028010;28;20053;-71
2022/11/14 08:26:36;;;;;;;7.25;4.10;;;;;;;5.54;74.79;102023.47;5027993;28;20045;-71
2022/11/14 08:29:05;;;;;;;6.68;3.50;;;;;;;5.51;74.37;102019.00;5028342;28;20083;-71
2022/11/14 08:31:36;;;;;;;7.68;3.08;;;;;;;5.50;74.25;102024.94;5029588;28;20495;-71
2022/11/14 08:34:07;;;;;;;5.25;2.92;;;;;;;5.50;73.38;102029.16;5038699;28;20137;-71
2022/11/14 08:36:35;;;;;;;8.82;3.25;;;;;;;5.52;73.52;102030.16;5034304;28;20072;-72
2022/11/14 08:39:04;;;;;;;4.93;2.92;;;;;;;5.52;73.22;102033.66;5032313;28;20091;-71
2022/11/14 08:41:40;;;;;;;7.85;3.33;;;;;;;5.53;72.85;102032.84;5032318;28;20041;-71
2022/11/14 08:44:09;;;;;;;8.55;3.03;;;;;;;5.53;73.01;102037.97;5034462;28;20049;-72
2022/11/14 08:46:40;;;;;;;6.97;3.00;;;;;;;5.55;72.14;102038.97;5033959;28;20083;-74
2022/11/14 08:49:10;;;;;;;6.82;3.15;;;;;;;5.56;71.45;102035.63;5033352;28;20115;-73
2022/11/14 08:51:39;;;;;;;8.85;2.50;;;;;;;5.56;70.78;102016.75;5033517;28;20072;-70
2022/11/14 08:54:08;;;;;;;5.28;2.92;;;;;;;5.58;70.35;102026.34;5029873;28;20578;-70
2022/11/14 08:56:37;;;;;;;4.53;2.50;;;;;;;5.61;69.46;102031.72;5026941;28;20042;-70
2022/11/14 08:59:06;;;;;;;5.93;3.53;;;;;;;5.64;69.09;102036.16;5027054;28;20145;-71
2022/11/14 09:01:35;;;;;;;6.90;3.75;;;;;;;5.65;69.62;102028.56;5033201;28;20046;-72
2022/11/14 09:04:03;;;;;;;8.23;3.05;;;;;;;5.66;69.42;102032.03;5027851;28;20053;-71
2022/11/14 09:06:34;;;;;;;6.30;3.10;;;;;;;5.69;70.34;102033.94;5028541;28;20050;-72
2022/11/14 09:09:02;;;;;;;5.93;3.50;;;;;;;5.67;70.70;102037.25;5026099;28;20494;-72
2022/11/14 09:11:31;;;;;;;7.03;3.15;;;;;;;5.67;69.61;102031.25;5027917;28;20053;-71
2022/11/14 09:14:01;;;;;;;5.88;3.30;;;;;;;5.65;69.88;102017.41;5038663;28;20051;-71
2022/11/14 09:16:30;;;;;;;5.97;3.33;;;;;;;5.64;69.43;102021.66;5042959;28;20056;-71
2022/11/14 09:18:58;;;;;;;5.45;3.08;;;;;;;5.64;69.61;102024.22;5045876;28;20099;-71
2022/11/14 09:21:27;;;;;;;9.25;3.50;;;;;;;5.65;69.08;102030.25;5045203;28;20057;-70
2022/11/14 09:23:57;;;;;;;7.30;3.33;;;;;;;5.64;68.24;102016.50;5050706;28;20487;-74
2022/11/14 09:26:26;;;;;;;5.65;3.20;;;;;;;5.67;69.00;102027.00;5045146;28;20529;-71
2022/11/14 09:28:55;;;;;;;5.45;3.22;;;;;;;5.68;68.53;102027.91;5045594;28;20059;-71
2022/11/14 09:31:24;;;;;;;5.72;2.85;;;;;;;5.69;68.54;102031.34;5045093;28;20045;-71
2022/11/14 09:33:52;;;;;;;8.10;2.80;;;;;;;5.69;69.17;102026.22;5047747;28;20064;-74
2022/11/14 09:36:21;;;;;;;5.97;2.85;;;;;;;5.69;68.36;102028.78;5049395;28;20056;-73
2022/11/14 09:38:52;;;;;;;8.13;3.08;;;;;;;5.70;68.72;102035.69;5051074;28;20045;-74
2022/11/14 09:41:27;;;;;;;4.70;2.65;;;;;;;5.68;69.14;102038.19;5049293;28;20564;-71
2022/11/14 09:44:23;;;;;;;6.43;3.10;;;;;;;5.70;69.87;102030.56;5049536;28;20045;-70
2022/11/14 09:46:57;;;;;;;5.00;3.22;;;;;;;5.70;69.37;102033.13;5041617;28;20045;-71
2022/11/14 09:49:38;;;;;;;10.30;3.17;;;;;;;5.66;69.60;102024.34;5043644;28;20406;-71
2022/11/14 09:52:16;;;;;;;7.38;3.20;;;;;;;5.70;69.10;102033.13;5048404;28;20053;-69
2022/11/14 09:54:52;;;;;;;7.88;3.40;;;;;;;5.65;70.46;102038.81;5047220;28;20087;-71
2022/11/14 09:57:23;;;;;;;5.88;3.08;;;;;;;5.67;70.26;102052.66;5044760;28;20073;-71
2022/11/14 09:59:52;;;;;;;4.90;3.40;;;;;;;5.70;71.32;102056.22;5045325;28;20049;-70
2022/11/14 14:40:56;;;;;;;7.60;3.05;;;;;;;4.32;73.25;102040.31;4923584;27;20054;-65
2022/11/14 14:43:34;;;;;;;11.57;3.15;;;;;;;4.32;74.04;102048.00;4982642;28;20046;-65
2022/11/14 14:46:03;;;;;;;6.63;2.78;;;;;;;4.30;74.54;102038.41;4988974;28;20145;-67
2022/11/14 14:58:54;;;;;;;5.15;2.75;;;;;;;4.33;74.47;102049.81;5144617;23;20071;-71
2022/11/14 15:01:26;;;;;;;6.07;3.55;;;;;;;4.34;75.97;102036.19;4969088;28;20605;-70
2022/11/14 15:04:01;;;;;;;4.72;2.83;;;;;;;4.36;75.61;102046.56;5182929;23;20065;-78
2022/11/14 15:06:33;;;;;;;11.40;3.92;;;;;;;4.39;76.13;102040.00;4967070;28;20050;-77
2022/11/14 15:09:16;;;;;;;6.85;3.00;;;;;;;4.44;74.40;102036.88;4970524;28;20436;-77
2022/11/14 15:11:48;;;;;;;8.13;3.85;;;;;;;4.46;73.02;102036.22;4967603;28;20046;-78
2022/11/14 15:14:21;;;;;;;4.30;2.72;;;;;;;4.50;73.26;102039.91;4960742;28;20057;-80
2022/11/14 15:16:51;;;;;;;5.53;2.95;;;;;;;4.53;72.92;102046.16;4966771;28;20042;-76
2022/11/14 15:19:22;;;;;;;4.90;3.33;;;;;;;4.56;72.91;102051.53;4971148;28;20496;-76
2022/11/14 15:22:22;;;;;;;5.68;3.40;;;;;;;4.60;70.51;102047.50;4968702;28;20047;-76
2022/11/14 15:25:23;;;;;;;5.78;3.20;;;;;;;4.65;69.58;102053.88;4969022;28;20043;-77
2022/11/14 15:27:57;;;;;;;5.40;3.03;;;;;;;4.70;69.03;102059.34;4960030;28;20047;-78
2022/11/14 15:30:33;;;;;;;7.85;2.83;;;;;;;4.74;68.96;102059.69;4959666;28;20748;-79
2022/11/14 15:33:24;;;;;;;5.82;3.00;;;;;;;4.80;67.83;102059.22;4970187;28;20046;-79
2022/11/14 15:36:08;;;;;;;5.10;2.67;;;;;;;4.84;68.23;102048.44;4971079;28;20047;-80
2022/11/14 15:38:39;;;;;;;3.33;2.38;;;;;;;4.91;67.88;102049.78;4965476;28;20047;-85
2022/11/14 15:41:21;;;;;;;5.18;3.22;;;;;;;4.96;67.74;102051.88;4967920;28;20113;-77
2022/11/14 15:44:04;;;;;;;5.13;2.85;;;;;;;5.02;67.14;102041.19;4962839;28;20428;-76
2022/11/14 15:46:47;;;;;;;7.78;3.42;;;;;;;5.08;66.71;102059.56;4960674;28;20051;-80
2022/11/14 15:49:23;;;;;;;4.55;2.63;;;;;;;5.09;67.51;102045.97;4971294;28;20043;-78
2022/11/14 15:51:55;;;;;;;6.43;2.75;;;;;;;5.12;67.10;102047.88;4957079;28;20061;-77
2022/11/14 15:54:28;;;;;;;5.47;2.78;;;;;;;5.19;67.23;102056.09;4970597;28;20476;-79
2022/11/14 15:56:59;;;;;;;5.80;3.05;;;;;;;5.23;66.34;102052.09;4971521;28;20052;-75
2022/11/14 15:59:31;;;;;;;5.53;3.15;;;;;;;5.27;65.45;102064.38;4957155;28;20078;-76
2022/11/14 16:02:07;;;;;;;4.43;3.30;;;;;;;5.31;65.21;102060.34;4947256;28;20066;-74
2022/11/14 16:04:50;;;;;;;5.00;2.47;;;;;;;5.40;64.98;102068.69;4944710;28;20059;-75
2022/11/14 16:07:20;;;;;;;5.55;3.00;;;;;;;5.45;66.90;102065.69;4944262;28;20055;-75
2022/11/14 16:09:49;;;;;;;10.52;3.33;;;;;;;5.46;66.39;102069.13;4949689;28;20050;-75
2022/11/14 16:12:19;;;;;;;5.18;3.10;;;;;;;5.48;67.46;102059.00;4940589;28;20055;-78
2022/11/14 16:14:50;;;;;;;3.75;2.22;;;;;;;5.54;69.85;102064.53;4946722;28;20062;-76
2022/11/14 16:17:20;;;;;;;7.72;3.40;;;;;;;5.50;68.30;102063.44;4953583;28;20066;-76
2022/11/14 16:19:48;;;;;;;5.68;3.50;;;;;;;5.61;66.43;102077.94;4951393;28;20518;-77
2022/11/14 16:22:19;;;;;;;5.43;3.50;;;;;;;5.63;65.65;102060.94;4950737;28;20070;-78
2022/11/14 16:24:47;;;;;;;7.10;3.47;;;;;;;5.74;65.49;102065.94;4953456;28;20512;-76
2022/11/14 16:27:16;;;;;;;5.45;3.17;;;;;;;5.80;64.47;102067.28;4945373;28;20134;-75
2022/11/14 16:29:45;;;;;;;10.40;3.97;;;;;;;5.87;65.05;102061.78;4948794;28;20047;-76
2022/11/14 16:32:13;;;;;;;5.15;3.10;;;;;;;5.93;64.47;102069.00;4952166;28;20055;-76
2022/11/14 16:34:44;;;;;;;8.13;3.70;;;;;;;6.23;64.41;102071.91;4947848;28;20054;-76
2022/11/14 16:37:14;;;;;;;5.50;3.55;;;;;;;6.28;64.08;102066.31;4947936;28;20055;-81